createdAt,value
2018-09-01T00:00:49.187Z,0.00
2018-09-01T00:01:49.125Z,0.00
2018-09-01T00:02:49.065Z,0.00
2018-09-01T00:03:49.006Z,0.00
2018-09-01T00:04:48.949Z,0.00
2018-09-01T00:05:48.880Z,0.00
2018-09-01T00:06:48.814Z,0.00
2018-09-01T00:07:48.744Z,0.00
2018-09-01T00:08:48.695Z,0.00
2018-09-01T00:09:48.622Z,0.00
2018-09-01T00:10:48.564Z,0.00
2018-09-01T00:11:48.486Z,0.00
2018-09-01T00:12:48.413Z,0.00
2018-09-01T00:13:48.351Z,0.00
2018-09-01T00:14:48.302Z,0.00
2018-09-01T00:15:48.234Z,0.00
2018-09-01T00:16:48.168Z,0.00
2018-09-01T00:17:48.096Z,0.00
2018-09-01T00:18:48.027Z,0.00
2018-09-01T00:19:47.980Z,0.00
2018-09-01T00:20:47.914Z,0.00
2018-09-01T00:21:47.846Z,0.00
2018-09-01T00:22:47.788Z,0.00
2018-09-01T00:23:47.710Z,0.00
2018-09-01T00:24:47.649Z,0.00
2018-09-01T00:25:47.590Z,0.00
2018-09-01T00:26:47.528Z,0.00
2018-09-01T00:27:47.458Z,0.00
2018-09-01T00:28:47.394Z,0.00
2018-09-01T00:29:47.325Z,0.00
2018-09-01T00:30:47.292Z,0.00
2018-09-01T00:31:47.217Z,0.00
2018-09-01T00:32:47.142Z,0.00
2018-09-01T00:33:47.081Z,0.00
2018-09-01T00:34:47.015Z,0.00
2018-09-01T00:35:46.961Z,0.00
2018-09-01T00:36:46.877Z,0.00
2018-09-01T00:37:46.810Z,0.00
2018-09-01T00:38:46.751Z,0.00
2018-09-01T00:39:46.696Z,0.00
2018-09-01T00:40:46.630Z,0.00
2018-09-01T00:41:46.581Z,0.00
2018-09-01T00:42:46.501Z,0.00
2018-09-01T00:43:46.440Z,0.00
2018-09-01T00:44:46.376Z,0.00
2018-09-01T00:45:46.311Z,0.00
2018-09-01T00:46:46.247Z,0.00
2018-09-01T00:47:46.173Z,0.00
2018-09-01T00:48:46.103Z,0.00
2018-09-01T00:49:46.052Z,0.00
2018-09-01T00:50:45.992Z,0.00
2018-09-01T00:51:45.931Z,0.00
2018-09-01T00:52:45.849Z,0.00
2018-09-01T00:53:45.789Z,0.00
2018-09-01T00:54:45.727Z,0.00
2018-09-01T00:55:45.670Z,0.00
2018-09-01T00:56:45.604Z,0.00
2018-09-01T00:57:45.528Z,0.00
2018-09-01T00:58:45.487Z,0.00
2018-09-01T00:59:45.412Z,0.00
2018-09-01T01:00:45.346Z,0.00
2018-09-01T01:01:45.330Z,0.00
2018-09-01T01:02:45.236Z,0.00
2018-09-01T01:03:45.165Z,0.00
2018-09-01T01:04:45.106Z,0.00
2018-09-01T01:05:45.038Z,0.00
2018-09-01T01:06:44.954Z,0.00
2018-09-01T01:07:44.897Z,0.00
2018-09-01T01:08:44.834Z,0.00
2018-09-01T01:09:44.772Z,0.00
2018-09-01T01:10:44.704Z,0.00
2018-09-01T01:11:44.635Z,0.00
2018-09-01T01:12:44.565Z,0.00
2018-09-01T01:13:44.512Z,0.00
2018-09-01T01:14:44.456Z,0.00
2018-09-01T01:15:44.386Z,0.00
2018-09-01T01:16:44.309Z,0.00
2018-09-01T01:17:44.243Z,0.00
2018-09-01T01:18:44.208Z,0.00
2018-09-01T01:19:44.127Z,0.00
2018-09-01T01:20:44.065Z,0.00
2018-09-01T01:21:44.007Z,0.00
2018-09-01T01:22:43.941Z,0.00
2018-09-01T01:23:43.870Z,0.00
2018-09-01T01:24:43.806Z,0.00
2018-09-01T01:25:43.740Z,0.00
2018-09-01T01:26:43.671Z,0.00
2018-09-01T01:27:43.605Z,0.00
2018-09-01T01:28:43.551Z,0.00
2018-09-01T01:29:43.484Z,0.00
2018-09-01T01:30:43.435Z,0.00
2018-09-01T01:31:43.365Z,0.00
2018-09-01T01:32:43.271Z,0.00
2018-09-01T01:33:43.226Z,0.00
2018-09-01T01:34:43.149Z,0.00
2018-09-01T01:35:43.098Z,0.00
2018-09-01T01:36:43.034Z,0.00
2018-09-01T01:37:42.970Z,0.00
2018-09-01T01:38:42.905Z,0.00
2018-09-01T01:39:42.826Z,0.00
2018-09-01T01:40:42.784Z,0.00
2018-09-01T01:41:42.704Z,0.00
2018-09-01T01:42:42.646Z,0.00
2018-09-01T01:43:42.586Z,0.00
2018-09-01T01:44:42.513Z,0.00
2018-09-01T01:45:42.443Z,0.00
2018-09-01T01:46:42.397Z,0.00
2018-09-01T01:47:42.319Z,0.00
2018-09-01T01:48:42.259Z,0.00
2018-09-01T01:49:42.260Z,0.00
2018-09-01T01:50:42.131Z,0.00
2018-09-01T01:51:42.066Z,0.00
2018-09-01T01:52:41.994Z,0.00
2018-09-01T01:53:41.943Z,0.00
2018-09-01T01:54:41.877Z,0.00
2018-09-01T01:55:41.815Z,0.00
2018-09-01T01:56:41.743Z,0.00
2018-09-01T01:57:41.680Z,0.00
2018-09-01T01:58:41.609Z,0.00
2018-09-01T01:59:41.538Z,0.00
2018-09-01T02:00:41.474Z,0.00
2018-09-01T02:01:41.423Z,0.00
2018-09-01T02:02:41.350Z,0.00
2018-09-01T02:03:41.281Z,0.00
2018-09-01T02:04:41.213Z,0.00
2018-09-01T02:05:41.150Z,0.00
2018-09-01T02:06:41.101Z,0.00
2018-09-01T02:07:41.032Z,0.00
2018-09-01T02:08:40.962Z,0.00
2018-09-01T02:09:40.903Z,0.00
2018-09-01T02:10:40.837Z,0.00
2018-09-01T02:11:40.779Z,0.00
2018-09-01T02:12:40.713Z,0.00
2018-09-01T02:13:40.649Z,0.00
2018-09-01T02:14:40.569Z,0.00
2018-09-01T02:15:40.511Z,0.00
2018-09-01T02:16:40.456Z,0.00
2018-09-01T02:17:40.382Z,0.00
2018-09-01T02:18:40.316Z,0.00
2018-09-01T02:19:40.261Z,0.00
2018-09-01T02:20:40.193Z,0.00
2018-09-01T02:21:40.131Z,0.00
2018-09-01T02:22:40.061Z,0.00
2018-09-01T02:23:39.992Z,0.00
2018-09-01T02:24:39.948Z,0.00
2018-09-01T02:25:39.870Z,0.00
2018-09-01T02:26:39.819Z,0.00
2018-09-01T02:27:39.729Z,0.00
2018-09-01T02:28:39.668Z,0.00
2018-09-01T02:29:39.600Z,0.00
2018-09-01T02:30:39.542Z,0.00
2018-09-01T02:31:39.485Z,0.00
2018-09-01T02:32:39.415Z,0.00
2018-09-01T02:33:39.348Z,0.00
2018-09-01T02:34:39.284Z,0.00
2018-09-01T02:35:39.233Z,0.00
2018-09-01T02:36:39.161Z,0.00
2018-09-01T02:37:39.099Z,0.00
2018-09-01T02:38:39.031Z,0.00
2018-09-01T02:39:38.964Z,0.00
2018-09-01T02:40:38.894Z,0.00
2018-09-01T02:41:38.835Z,0.00
2018-09-01T02:42:38.765Z,0.00
2018-09-01T02:43:38.708Z,0.00
2018-09-01T02:44:38.660Z,0.00
2018-09-01T02:45:38.579Z,0.00
2018-09-01T02:46:38.518Z,0.00
2018-09-01T02:47:38.459Z,0.00
2018-09-01T02:48:38.391Z,0.00
2018-09-01T02:49:38.321Z,0.00
2018-09-01T02:50:38.261Z,0.00
2018-09-01T02:51:38.209Z,0.00
2018-09-01T02:52:38.116Z,0.00
2018-09-01T02:53:38.052Z,0.00
2018-09-01T02:54:38.004Z,0.00
2018-09-01T02:55:37.930Z,0.00
2018-09-01T02:56:37.874Z,0.00
2018-09-01T02:57:37.805Z,0.00
2018-09-01T02:58:37.740Z,0.00
2018-09-01T02:59:37.680Z,0.00
2018-09-01T03:00:37.598Z,0.00
2018-09-01T03:01:37.534Z,0.00
2018-09-01T03:02:37.472Z,0.00
2018-09-01T03:03:37.412Z,0.00
2018-09-01T03:04:37.357Z,0.00
2018-09-01T03:05:37.294Z,0.00
2018-09-01T03:06:37.219Z,0.00
2018-09-01T03:07:37.165Z,0.00
2018-09-01T03:08:37.092Z,0.00
2018-09-01T03:09:37.029Z,0.00
2018-09-01T03:10:36.966Z,0.00
2018-09-01T03:11:36.892Z,0.00
2018-09-01T03:12:36.827Z,0.00
2018-09-01T03:13:36.757Z,0.00
2018-09-01T03:14:36.696Z,0.00
2018-09-01T03:15:36.642Z,0.00
2018-09-01T03:16:36.569Z,0.00
2018-09-01T03:17:36.513Z,0.00
2018-09-01T03:18:36.443Z,0.00
2018-09-01T03:19:36.372Z,0.00
2018-09-01T03:20:36.304Z,0.00
2018-09-01T03:21:36.253Z,0.00
2018-09-01T03:22:36.193Z,0.00
2018-09-01T03:23:36.116Z,0.00
2018-09-01T03:24:36.049Z,0.00
2018-09-01T03:25:35.978Z,0.00
2018-09-01T03:26:35.914Z,0.00
2018-09-01T03:27:35.857Z,0.00
2018-09-01T03:28:35.789Z,0.00
2018-09-01T03:29:35.723Z,0.00
2018-09-01T03:30:35.672Z,0.00
2018-09-01T03:31:35.611Z,0.00
2018-09-01T03:32:35.533Z,0.00
2018-09-01T03:33:35.479Z,0.00
2018-09-01T03:34:35.405Z,0.00
2018-09-01T03:35:35.331Z,0.00
2018-09-01T03:36:35.284Z,0.00
2018-09-01T03:37:35.216Z,0.00
2018-09-01T03:38:35.147Z,0.00
2018-09-01T03:39:35.086Z,0.00
2018-09-01T03:40:35.011Z,0.00
2018-09-01T03:41:34.940Z,0.00
2018-09-01T03:42:34.881Z,0.00
2018-09-01T03:43:34.822Z,0.00
2018-09-01T03:44:34.760Z,0.00
2018-09-01T03:45:34.695Z,0.00
2018-09-01T03:46:34.629Z,0.00
2018-09-01T03:47:34.553Z,0.00
2018-09-01T03:48:34.497Z,0.00
2018-09-01T03:49:34.423Z,0.00
2018-09-01T03:50:34.365Z,0.00
2018-09-01T03:51:34.305Z,0.00
2018-09-01T03:52:34.237Z,0.00
2018-09-01T03:53:34.165Z,0.00
2018-09-01T03:54:34.101Z,0.00
2018-09-01T03:55:34.047Z,0.00
2018-09-01T03:56:33.990Z,0.00
2018-09-01T03:57:33.921Z,0.00
2018-09-01T03:58:33.852Z,0.00
2018-09-01T03:59:33.776Z,0.00
2018-09-01T04:00:33.716Z,0.00
2018-09-01T04:01:33.646Z,0.00
2018-09-01T04:02:33.587Z,0.00
2018-09-01T04:03:33.529Z,0.00
2018-09-01T04:04:33.469Z,0.00
2018-09-01T04:05:33.393Z,0.00
2018-09-01T04:06:33.333Z,0.00
2018-09-01T04:07:33.279Z,0.00
2018-09-01T04:08:33.192Z,0.00
2018-09-01T04:09:33.137Z,0.00
2018-09-01T04:10:33.077Z,0.00
2018-09-01T04:11:33.000Z,0.00
2018-09-01T04:12:32.952Z,0.00
2018-09-01T04:13:32.894Z,0.00
2018-09-01T04:14:32.809Z,0.00
2018-09-01T04:15:32.757Z,0.00
2018-09-01T04:16:32.682Z,0.00
2018-09-01T04:17:32.626Z,0.00
2018-09-01T04:18:32.559Z,0.00
2018-09-01T04:19:32.481Z,0.00
2018-09-01T04:20:32.436Z,0.00
2018-09-01T04:21:32.352Z,0.00
2018-09-01T04:22:32.288Z,0.00
2018-09-01T04:23:32.234Z,0.00
2018-09-01T04:24:32.171Z,0.00
2018-09-01T04:25:32.097Z,0.00
2018-09-01T04:26:32.044Z,0.00
2018-09-01T04:27:31.979Z,0.00
2018-09-01T04:28:31.910Z,0.00
2018-09-01T04:29:31.852Z,0.00
2018-09-01T04:30:31.798Z,0.00
2018-09-01T04:31:31.726Z,0.00
2018-09-01T04:32:31.649Z,0.00
2018-09-01T04:33:31.618Z,0.00
2018-09-01T04:34:31.531Z,0.00
2018-09-01T04:35:31.468Z,0.00
2018-09-01T04:36:31.381Z,0.00
2018-09-01T04:37:31.336Z,0.00
2018-09-01T04:38:31.259Z,0.00
2018-09-01T04:39:31.198Z,0.00
2018-09-01T04:40:31.138Z,0.00
2018-09-01T04:41:31.059Z,0.00
2018-09-01T04:42:30.995Z,0.00
2018-09-01T04:43:30.945Z,0.00
2018-09-01T04:44:30.884Z,0.00
2018-09-01T04:45:30.808Z,0.00
2018-09-01T04:46:30.752Z,0.00
2018-09-01T04:47:30.691Z,0.00
2018-09-01T04:48:30.623Z,0.00
2018-09-01T04:49:30.535Z,0.00
2018-09-01T04:50:30.477Z,0.00
2018-09-01T04:51:30.418Z,0.00
2018-09-01T04:52:30.356Z,0.00
2018-09-01T04:53:30.290Z,0.00
2018-09-01T04:54:30.226Z,0.00
2018-09-01T04:55:30.147Z,0.00
2018-09-01T04:56:30.108Z,0.00
2018-09-01T04:57:30.035Z,0.00
2018-09-01T04:58:29.969Z,0.00
2018-09-01T04:59:29.912Z,0.00
2018-09-01T05:00:29.841Z,0.00
2018-09-01T05:01:29.789Z,0.00
2018-09-01T05:02:29.695Z,0.00
2018-09-01T05:03:29.650Z,0.00
2018-09-01T05:04:29.576Z,0.00
2018-09-01T05:05:29.503Z,4.00
2018-09-01T05:06:29.437Z,0.00
2018-09-01T05:07:29.386Z,0.00
2018-09-01T05:08:29.322Z,4.00
2018-09-01T05:09:29.251Z,4.00
2018-09-01T05:10:29.185Z,4.00
2018-09-01T05:11:29.119Z,4.00
2018-09-01T05:12:29.065Z,4.00
2018-09-01T05:13:28.995Z,8.00
2018-09-01T05:14:28.925Z,8.00
2018-09-01T05:15:28.854Z,12.00
2018-09-01T05:16:28.806Z,12.00
2018-09-01T05:17:28.731Z,16.00
2018-09-01T05:18:28.689Z,20.00
2018-09-01T05:19:28.598Z,20.00
2018-09-01T05:20:28.549Z,24.00
2018-09-01T05:21:28.475Z,28.00
2018-09-01T05:22:28.410Z,36.00
2018-09-01T05:23:28.333Z,36.00
2018-09-01T05:24:28.267Z,44.00
2018-09-01T05:25:28.201Z,52.00
2018-09-01T05:26:28.139Z,60.00
2018-09-01T05:27:28.078Z,64.00
2018-09-01T05:28:28.027Z,72.00
2018-09-01T05:29:27.943Z,80.00
2018-09-01T05:30:27.876Z,88.00
2018-09-01T05:31:27.822Z,96.00
2018-09-01T05:32:27.753Z,108.00
2018-09-01T05:33:27.688Z,116.00
2018-09-01T05:34:27.630Z,128.00
2018-09-01T05:35:27.555Z,140.00
2018-09-01T05:36:27.536Z,152.00
2018-09-01T05:37:27.433Z,160.00
2018-09-01T05:38:27.377Z,176.00
2018-09-01T05:39:27.311Z,188.00
2018-09-01T05:40:27.228Z,200.00
2018-09-01T05:41:27.163Z,220.00
2018-09-01T05:42:27.099Z,236.00
2018-09-01T05:43:27.038Z,248.00
2018-09-01T05:44:26.977Z,268.00
2018-09-01T05:45:26.895Z,284.00
2018-09-01T05:46:26.839Z,300.00
2018-09-01T05:47:26.798Z,324.00
2018-09-01T05:48:26.716Z,348.00
2018-09-01T05:49:26.648Z,368.00
2018-09-01T05:50:26.587Z,396.00
2018-09-01T05:51:26.530Z,420.00
2018-09-01T05:52:26.455Z,452.00
2018-09-01T05:53:26.374Z,484.00
2018-09-01T05:54:26.334Z,516.00
2018-09-01T05:55:26.271Z,548.00
2018-09-01T05:56:26.210Z,580.00
2018-09-01T05:57:26.133Z,616.00
2018-09-01T05:58:26.064Z,656.00
2018-09-01T05:59:25.994Z,696.00
2018-09-01T06:00:25.955Z,732.00
2018-09-01T06:01:25.870Z,776.00
2018-09-01T06:02:25.810Z,820.00
2018-09-01T06:03:25.747Z,868.00
2018-09-01T06:04:25.679Z,924.00
2018-09-01T06:05:25.597Z,972.00
2018-09-01T06:06:25.634Z,1024.00
2018-09-01T06:07:25.477Z,1076.00
2018-09-01T06:08:25.417Z,1132.00
2018-09-01T06:09:25.354Z,1196.00
2018-09-01T06:10:25.292Z,1260.00
2018-09-01T06:11:25.213Z,1316.00
2018-09-01T06:12:25.160Z,1384.00
2018-09-01T06:13:25.083Z,1448.00
2018-09-01T06:14:25.020Z,1516.00
2018-09-01T06:15:24.970Z,1584.00
2018-09-01T06:16:24.905Z,1656.00
2018-09-01T06:17:24.840Z,1728.00
2018-09-01T06:18:24.759Z,1800.00
2018-09-01T06:19:24.707Z,1876.00
2018-09-01T06:20:24.638Z,1944.00
2018-09-01T06:21:24.575Z,2008.00
2018-09-01T06:22:24.512Z,2072.00
2018-09-01T06:23:24.431Z,2140.00
2018-09-01T06:24:24.393Z,2212.00
2018-09-01T06:25:24.307Z,2280.00
2018-09-01T06:26:24.298Z,2328.00
2018-09-01T06:27:24.190Z,2400.00
2018-09-01T06:28:24.125Z,2456.00
2018-09-01T06:29:24.056Z,2512.00
2018-09-01T06:30:24.000Z,2564.00
2018-09-01T06:31:23.920Z,2624.00
2018-09-01T06:32:23.876Z,2672.00
2018-09-01T06:33:23.801Z,2720.00
2018-09-01T06:34:23.736Z,2768.00
2018-09-01T06:35:23.682Z,2824.00
2018-09-01T06:36:23.599Z,2868.00
2018-09-01T06:37:23.537Z,2920.00
2018-09-01T06:38:23.470Z,2972.00
2018-09-01T06:39:23.422Z,3020.00
2018-09-01T06:40:23.358Z,3072.00
2018-09-01T06:41:23.296Z,3116.00
2018-09-01T06:42:23.244Z,3164.00
2018-09-01T06:43:23.160Z,3216.00
2018-09-01T06:44:23.098Z,3260.00
2018-09-01T06:45:23.046Z,3304.00
2018-09-01T06:46:22.983Z,3352.00
2018-09-01T06:47:22.905Z,3392.00
2018-09-01T06:48:22.831Z,3436.00
2018-09-01T06:49:22.776Z,3476.00
2018-09-01T06:50:22.718Z,3508.00
2018-09-01T06:51:22.666Z,3556.00
2018-09-01T06:52:22.596Z,3592.00
2018-09-01T06:53:22.557Z,3624.00
2018-09-01T06:54:22.452Z,3648.00
2018-09-01T06:55:22.400Z,3680.00
2018-09-01T06:56:22.331Z,3724.00
2018-09-01T06:57:22.271Z,3764.00
2018-09-01T06:58:22.222Z,3800.00
2018-09-01T06:59:22.136Z,3840.00
2018-09-01T07:00:22.094Z,3872.00
2018-09-01T07:01:22.028Z,3912.00
2018-09-01T07:02:21.946Z,3944.00
2018-09-01T07:03:21.890Z,3964.00
2018-09-01T07:04:21.822Z,4000.00
2018-09-01T07:05:21.751Z,4020.00
2018-09-01T07:06:21.707Z,4056.00
2018-09-01T07:07:21.668Z,4092.00
2018-09-01T07:08:21.570Z,4124.00
2018-09-01T07:09:21.510Z,4144.00
2018-09-01T07:10:21.441Z,4172.00
2018-09-01T07:11:21.373Z,4184.00
2018-09-01T07:12:21.304Z,4208.00
2018-09-01T07:13:21.245Z,4236.00
2018-09-01T07:14:21.181Z,4244.00
2018-09-01T07:15:21.130Z,4296.00
2018-09-01T07:16:21.066Z,4316.00
2018-09-01T07:17:21.002Z,4340.00
2018-09-01T07:18:20.936Z,4364.00
2018-09-01T07:19:20.887Z,4396.00
2018-09-01T07:20:20.799Z,4424.00
2018-09-01T07:21:20.765Z,4448.00
2018-09-01T07:22:20.682Z,4480.00
2018-09-01T07:23:20.630Z,4480.00
2018-09-01T07:24:20.551Z,4532.00
2018-09-01T07:25:20.485Z,4548.00
2018-09-01T07:26:20.426Z,4576.00
2018-09-01T07:27:20.370Z,4604.00
2018-09-01T07:28:20.307Z,4616.00
2018-09-01T07:29:20.246Z,4632.00
2018-09-01T07:30:20.370Z,4656.00
2018-09-01T07:31:20.422Z,4668.00
2018-09-01T07:32:20.046Z,4700.00
2018-09-01T07:33:19.977Z,4708.00
2018-09-01T07:34:19.920Z,4728.00
2018-09-01T07:35:19.862Z,4764.00
2018-09-01T07:36:19.804Z,4788.00
2018-09-01T07:37:19.747Z,4816.00
2018-09-01T07:38:19.683Z,4828.00
2018-09-01T07:39:19.612Z,4824.00
2018-09-01T07:40:19.546Z,4848.00
2018-09-01T07:41:19.485Z,4876.00
2018-09-01T07:42:19.425Z,4892.00
2018-09-01T07:43:19.352Z,4896.00
2018-09-01T07:44:19.285Z,4912.00
2018-09-01T07:45:19.285Z,4916.00
2018-09-01T07:46:19.174Z,4920.00
2018-09-01T07:47:19.102Z,4940.00
2018-09-01T07:48:19.042Z,4956.00
2018-09-01T07:49:18.977Z,4960.00
2018-09-01T07:50:18.914Z,4972.00
2018-09-01T07:51:18.864Z,4980.00
2018-09-01T07:52:18.790Z,4996.00
2018-09-01T07:53:18.721Z,5012.00
2018-09-01T07:54:18.661Z,5028.00
2018-09-01T07:55:18.609Z,5032.00
2018-09-01T07:56:18.654Z,5056.00
2018-09-01T07:57:18.484Z,5064.00
2018-09-01T07:58:18.420Z,5068.00
2018-09-01T07:59:18.361Z,5068.00
2018-09-01T08:00:18.353Z,5080.00
2018-09-01T08:01:18.239Z,5100.00
2018-09-01T08:02:18.166Z,5112.00
2018-09-01T08:03:18.110Z,5104.00
2018-09-01T08:04:18.046Z,5120.00
2018-09-01T08:05:17.996Z,5124.00
2018-09-01T08:06:17.922Z,5136.00
2018-09-01T08:07:17.904Z,5152.00
2018-09-01T08:08:17.784Z,5160.00
2018-09-01T08:09:17.728Z,5172.00
2018-09-01T08:10:17.670Z,5168.00
2018-09-01T08:11:17.600Z,5180.00
2018-09-01T08:12:17.531Z,5184.00
2018-09-01T08:13:17.477Z,5192.00
2018-09-01T08:14:17.481Z,5200.00
2018-09-01T08:15:17.358Z,5216.00
2018-09-01T08:16:17.303Z,5220.00
2018-09-01T08:17:17.230Z,5220.00
2018-09-01T08:18:17.166Z,5220.00
2018-09-01T08:19:17.093Z,5264.00
2018-09-01T08:20:17.035Z,5248.00
2018-09-01T08:21:16.980Z,5232.00
2018-09-01T08:22:16.916Z,5240.00
2018-09-01T08:23:16.862Z,5248.00
2018-09-01T08:24:16.800Z,5252.00
2018-09-01T08:25:16.725Z,5272.00
2018-09-01T08:26:16.682Z,5260.00
2018-09-01T08:27:16.613Z,5264.00
2018-09-01T08:28:16.548Z,5252.00
2018-09-01T08:29:16.491Z,5256.00
2018-09-01T08:30:16.431Z,5260.00
2018-09-01T08:31:16.364Z,5252.00
2018-09-01T08:32:16.295Z,5248.00
2018-09-01T08:33:16.244Z,5260.00
2018-09-01T08:34:16.172Z,5264.00
2018-09-01T08:35:16.121Z,5260.00
2018-09-01T08:36:16.055Z,5256.00
2018-09-01T08:37:15.990Z,5264.00
2018-09-01T08:38:15.940Z,5260.00
2018-09-01T08:39:15.861Z,5256.00
2018-09-01T08:40:15.856Z,5252.00
2018-09-01T08:41:15.750Z,5252.00
2018-09-01T08:42:15.691Z,5244.00
2018-09-01T08:43:15.623Z,5248.00
2018-09-01T08:44:15.550Z,5248.00
2018-09-01T08:45:15.492Z,5232.00
2018-09-01T08:46:15.431Z,5232.00
2018-09-01T08:47:15.383Z,5232.00
2018-09-01T08:48:15.314Z,5232.00
2018-09-01T08:49:15.242Z,5228.00
2018-09-01T08:50:15.184Z,5228.00
2018-09-01T08:51:15.139Z,5224.00
2018-09-01T08:52:15.070Z,5224.00
2018-09-01T08:53:15.005Z,5212.00
2018-09-01T08:54:14.947Z,5212.00
2018-09-01T08:55:14.879Z,5208.00
2018-09-01T08:56:14.819Z,5200.00
2018-09-01T08:57:14.762Z,5188.00
2018-09-01T08:58:14.698Z,5196.00
2018-09-01T08:59:14.629Z,5200.00
2018-09-01T09:00:14.567Z,5188.00
2018-09-01T09:01:14.513Z,5184.00
2018-09-01T09:02:14.445Z,5180.00
2018-09-01T09:03:14.396Z,5180.00
2018-09-01T09:04:14.334Z,5176.00
2018-09-01T09:05:14.278Z,5168.00
2018-09-01T09:06:14.214Z,5160.00
2018-09-01T09:07:14.141Z,5156.00
2018-09-01T09:08:14.077Z,5156.00
2018-09-01T09:09:14.020Z,5152.00
2018-09-01T09:10:13.975Z,5164.00
2018-09-01T09:11:13.902Z,5156.00
2018-09-01T09:12:13.849Z,5140.00
2018-09-01T09:13:13.776Z,5132.00
2018-09-01T09:14:13.713Z,5124.00
2018-09-01T09:15:13.667Z,5116.00
2018-09-01T09:16:13.601Z,5116.00
2018-09-01T09:17:13.535Z,5116.00
2018-09-01T09:18:13.472Z,5112.00
2018-09-01T09:19:13.407Z,5104.00
2018-09-01T09:20:13.356Z,5096.00
2018-09-01T09:21:13.297Z,5080.00
2018-09-01T09:22:13.239Z,5072.00
2018-09-01T09:23:13.166Z,5072.00
2018-09-01T09:24:13.101Z,5056.00
2018-09-01T09:25:13.058Z,5048.00
2018-09-01T09:26:12.986Z,5036.00
2018-09-01T09:27:12.929Z,5032.00
2018-09-01T09:28:12.858Z,5016.00
2018-09-01T09:29:12.795Z,5012.00
2018-09-01T09:30:12.740Z,4996.00
2018-09-01T09:31:12.695Z,4992.00
2018-09-01T09:32:12.616Z,4988.00
2018-09-01T09:33:12.574Z,4984.00
2018-09-01T09:34:12.485Z,4980.00
2018-09-01T09:35:12.425Z,4972.00
2018-09-01T09:36:12.380Z,4952.00
2018-09-01T09:37:12.305Z,4948.00
2018-09-01T09:38:12.250Z,4940.00
2018-09-01T09:39:12.199Z,4928.00
2018-09-01T09:40:12.148Z,4924.00
2018-09-01T09:41:12.066Z,4912.00
2018-09-01T09:42:11.997Z,4900.00
2018-09-01T09:43:11.937Z,4896.00
2018-09-01T09:44:11.886Z,4884.00
2018-09-01T09:45:11.825Z,4876.00
2018-09-01T09:46:11.755Z,4868.00
2018-09-01T09:47:11.695Z,4860.00
2018-09-01T09:48:11.629Z,4848.00
2018-09-01T09:49:11.571Z,4832.00
2018-09-01T09:50:11.518Z,4820.00
2018-09-01T09:51:11.452Z,4816.00
2018-09-01T09:52:11.385Z,4796.00
2018-09-01T09:53:11.341Z,4772.00
2018-09-01T09:54:11.273Z,4772.00
2018-09-01T09:55:11.215Z,4752.00
2018-09-01T09:56:11.157Z,4740.00
2018-09-01T09:57:11.093Z,4724.00
2018-09-01T09:58:11.054Z,4708.00
2018-09-01T09:59:10.957Z,4692.00
2018-09-01T10:00:10.904Z,4684.00
2018-09-01T10:01:10.946Z,4672.00
2018-09-01T10:02:10.780Z,4660.00
2018-09-01T10:03:10.718Z,4660.00
2018-09-01T10:04:10.658Z,4656.00
2018-09-01T10:05:10.616Z,4636.00
2018-09-01T10:06:10.548Z,4620.00
2018-09-01T10:07:10.483Z,4616.00
2018-09-01T10:08:10.420Z,4596.00
2018-09-01T10:09:10.360Z,4588.00
2018-09-01T10:10:10.344Z,4584.00
2018-09-01T10:11:10.323Z,4564.00
2018-09-01T10:12:10.168Z,4536.00
2018-09-01T10:13:10.112Z,4528.00
2018-09-01T10:14:10.052Z,4512.00
2018-09-01T10:15:10.006Z,4496.00
2018-09-01T10:16:09.925Z,4484.00
2018-09-01T10:17:09.858Z,4472.00
2018-09-01T10:18:09.810Z,4460.00
2018-09-01T10:19:09.794Z,4444.00
2018-09-01T10:20:09.799Z,4428.00
2018-09-01T10:21:09.642Z,4416.00
2018-09-01T10:22:09.560Z,4400.00
2018-09-01T10:23:09.521Z,4388.00
2018-09-01T10:24:09.436Z,4372.00
2018-09-01T10:25:09.376Z,4348.00
2018-09-01T10:26:09.327Z,4332.00
2018-09-01T10:27:09.380Z,4308.00
2018-09-01T10:28:09.203Z,4288.00
2018-09-01T10:29:09.148Z,4268.00
2018-09-01T10:30:09.098Z,4244.00
2018-09-01T10:31:09.015Z,4228.00
2018-09-01T10:32:08.962Z,4204.00
2018-09-01T10:33:08.901Z,4192.00
2018-09-01T10:34:08.828Z,4168.00
2018-09-01T10:35:08.786Z,4144.00
2018-09-01T10:36:08.723Z,4124.00
2018-09-01T10:37:08.643Z,4100.00
2018-09-01T10:38:08.592Z,4084.00
2018-09-01T10:39:08.537Z,4056.00
2018-09-01T10:40:08.475Z,4052.00
2018-09-01T10:41:08.413Z,4036.00
2018-09-01T10:42:08.355Z,4012.00
2018-09-01T10:43:08.298Z,3996.00
2018-09-01T10:44:08.230Z,3968.00
2018-09-01T10:45:08.159Z,3952.00
2018-09-01T10:46:08.122Z,3928.00
2018-09-01T10:47:08.048Z,3904.00
2018-09-01T10:48:08.013Z,3880.00
2018-09-01T10:49:07.913Z,3856.00
2018-09-01T10:50:07.868Z,3832.00
2018-09-01T10:51:07.810Z,3808.00
2018-09-01T10:52:07.744Z,3784.00
2018-09-01T10:53:07.687Z,3760.00
2018-09-01T10:54:07.634Z,3732.00
2018-09-01T10:55:07.608Z,3712.00
2018-09-01T10:56:07.504Z,3684.00
2018-09-01T10:57:07.438Z,3656.00
2018-09-01T10:58:07.375Z,3628.00
2018-09-01T10:59:07.441Z,3604.00
2018-09-01T11:00:07.257Z,3584.00
2018-09-01T11:01:07.187Z,3560.00
2018-09-01T11:02:07.141Z,3532.00
2018-09-01T11:03:07.132Z,3508.00
2018-09-01T11:04:07.010Z,3484.00
2018-09-01T11:05:06.964Z,3460.00
2018-09-01T11:06:06.904Z,3436.00
2018-09-01T11:07:06.837Z,3416.00
2018-09-01T11:08:06.770Z,3400.00
2018-09-01T11:09:06.725Z,3392.00
2018-09-01T11:10:06.648Z,3372.00
2018-09-01T11:11:06.589Z,3356.00
2018-09-01T11:12:06.528Z,3344.00
2018-09-01T11:13:06.463Z,3332.00
2018-09-01T11:14:06.418Z,3316.00
2018-09-01T11:15:06.353Z,3296.00
2018-09-01T11:16:06.288Z,3288.00
2018-09-01T11:17:06.231Z,3272.00
2018-09-01T11:18:06.163Z,3256.00
2018-09-01T11:19:06.101Z,3244.00
2018-09-01T11:20:06.054Z,3228.00
2018-09-01T11:21:05.988Z,3212.00
2018-09-01T11:22:05.920Z,3200.00
2018-09-01T11:23:05.855Z,3184.00
2018-09-01T11:24:05.816Z,3164.00
2018-09-01T11:25:05.760Z,3152.00
2018-09-01T11:26:05.744Z,3136.00
2018-09-01T11:27:05.627Z,3124.00
2018-09-01T11:28:05.689Z,3108.00
2018-09-01T11:29:05.516Z,3096.00
2018-09-01T11:30:05.435Z,3084.00
2018-09-01T11:31:05.381Z,3068.00
2018-09-01T11:32:05.321Z,3056.00
2018-09-01T11:33:05.251Z,3040.00
2018-09-01T11:34:05.241Z,3024.00
2018-09-01T11:35:05.164Z,3012.00
2018-09-01T11:36:05.105Z,3000.00
2018-09-01T11:37:05.034Z,2988.00
2018-09-01T11:38:04.973Z,2968.00
2018-09-01T11:39:04.902Z,2952.00
2018-09-01T11:40:04.834Z,2940.00
2018-09-01T11:41:04.778Z,2932.00
2018-09-01T11:42:04.730Z,2924.00
2018-09-01T11:43:04.847Z,2912.00
2018-09-01T11:44:04.577Z,2896.00
2018-09-01T11:45:04.525Z,2884.00
2018-09-01T11:46:04.474Z,2872.00
2018-09-01T11:47:04.414Z,2864.00
2018-09-01T11:48:04.350Z,2856.00
2018-09-01T11:49:04.290Z,2840.00
2018-09-01T11:50:04.275Z,2828.00
2018-09-01T11:51:04.158Z,2816.00
2018-09-01T11:52:04.105Z,2804.00
2018-09-01T11:53:04.103Z,2784.00
2018-09-01T11:54:04.035Z,2768.00
2018-09-01T11:55:03.920Z,2756.00
2018-09-01T11:56:03.852Z,2740.00
2018-09-01T11:57:03.793Z,2720.00
2018-09-01T11:58:03.773Z,2708.00
2018-09-01T11:59:03.701Z,2696.00
2018-09-01T12:00:03.613Z,2676.00
2018-09-01T12:01:03.549Z,2660.00
2018-09-01T12:02:03.540Z,2652.00
2018-09-01T12:03:03.436Z,2636.00
2018-09-01T12:04:03.378Z,2620.00
2018-09-01T12:05:03.363Z,2608.00
2018-09-01T12:06:03.251Z,2592.00
2018-09-01T12:07:03.190Z,2580.00
2018-09-01T12:08:03.164Z,2568.00
2018-09-01T12:09:03.219Z,2552.00
2018-09-01T12:10:03.021Z,2536.00
2018-09-01T12:11:02.937Z,2520.00
2018-09-01T12:12:02.899Z,2504.00
2018-09-01T12:13:02.825Z,2488.00
2018-09-01T12:14:02.771Z,2472.00
2018-09-01T12:15:02.709Z,2452.00
2018-09-01T12:16:02.648Z,2436.00
2018-09-01T12:17:02.589Z,2416.00
2018-09-01T12:18:02.517Z,2400.00
2018-09-01T12:19:02.479Z,2388.00
2018-09-01T12:20:02.413Z,2368.00
2018-09-01T12:21:02.335Z,2352.00
2018-09-01T12:22:02.288Z,2336.00
2018-09-01T12:23:02.236Z,2320.00
2018-09-01T12:24:02.157Z,2308.00
2018-09-01T12:25:02.103Z,2288.00
2018-09-01T12:26:02.046Z,2268.00
2018-09-01T12:27:01.991Z,2252.00
2018-09-01T12:28:01.922Z,2240.00
2018-09-01T12:29:01.867Z,2220.00
2018-09-01T12:30:01.796Z,2196.00
2018-09-01T12:31:01.730Z,2176.00
2018-09-01T12:32:01.674Z,2164.00
2018-09-01T12:33:01.618Z,2152.00
2018-09-01T12:34:01.565Z,2132.00
2018-09-01T12:35:01.501Z,2116.00
2018-09-01T12:36:01.437Z,2104.00